createdAt,value
2017-01-16T00:00:47.269Z,0
2017-01-16T00:01:58.666Z,0
2017-01-16T00:03:10.113Z,0
2017-01-16T00:04:21.515Z,0
2017-01-16T00:05:32.909Z,0
2017-01-16T00:06:44.308Z,0
2017-01-16T00:07:55.700Z,0
2017-01-16T00:09:07.146Z,0
2017-01-16T00:10:18.541Z,0
2017-01-16T00:11:29.938Z,0
2017-01-16T00:12:41.344Z,0
2017-01-16T00:13:52.745Z,0
2017-01-16T00:15:04.187Z,0
2017-01-16T00:16:15.588Z,0
2017-01-16T00:17:27.187Z,0
2017-01-16T00:18:38.577Z,0
2017-01-16T00:19:49.967Z,0
2017-01-16T00:21:01.646Z,0
2017-01-16T00:22:13.042Z,0
2017-01-16T00:23:24.639Z,0
2017-01-16T00:24:36.060Z,0
2017-01-16T00:25:47.460Z,0
2017-01-16T00:26:59.129Z,0
2017-01-16T00:28:10.530Z,0
2017-01-16T00:29:21.924Z,0
2017-01-16T00:30:33.333Z,0
2017-01-16T00:31:44.732Z,0
2017-01-16T00:32:56.176Z,0
2017-01-16T00:34:07.569Z,0
2017-01-16T00:35:19.172Z,0
2017-01-16T00:36:30.571Z,0
2017-01-16T00:37:41.969Z,0
2017-01-16T00:38:53.413Z,0
2017-01-16T00:40:04.814Z,0
2017-01-16T00:41:16.219Z,0
2017-01-16T00:42:27.612Z,0
2017-01-16T00:43:39.010Z,0
2017-01-16T00:44:50.457Z,0
2017-01-16T00:46:01.854Z,0
2017-01-16T00:47:13.259Z,0
2017-01-16T00:48:24.862Z,0
2017-01-16T00:49:36.264Z,0
2017-01-16T00:50:47.712Z,0
2017-01-16T00:51:59.311Z,0
2017-01-16T00:53:10.711Z,0
2017-01-16T00:54:22.305Z,0
2017-01-16T00:55:33.705Z,0
2017-01-16T00:56:45.155Z,0
2017-01-16T00:57:56.558Z,0
2017-01-16T00:59:07.960Z,0
2017-01-16T01:00:19.361Z,0
2017-01-16T01:01:30.763Z,0
2017-01-16T01:02:42.216Z,0
2017-01-16T01:03:53.619Z,0
2017-01-16T01:05:05.028Z,0
2017-01-16T01:06:16.435Z,0
2017-01-16T01:07:27.843Z,0
2017-01-16T01:08:39.290Z,0
2017-01-16T01:09:50.682Z,0
2017-01-16T01:11:02.083Z,0
2017-01-16T01:12:13.490Z,0
2017-01-16T01:13:24.883Z,0
2017-01-16T01:14:36.332Z,0
2017-01-16T01:15:47.730Z,0
2017-01-16T01:16:59.133Z,0
2017-01-16T01:18:10.526Z,0
2017-01-16T01:19:21.918Z,0
2017-01-16T01:20:33.372Z,0
2017-01-16T01:21:44.781Z,0
2017-01-16T01:22:56.180Z,0
2017-01-16T01:24:07.584Z,0
2017-01-16T01:25:19.226Z,0
2017-01-16T01:26:30.663Z,0
2017-01-16T01:27:42.265Z,0
2017-01-16T01:28:53.865Z,0
2017-01-16T01:30:05.281Z,0
2017-01-16T01:31:16.676Z,0
2017-01-16T01:32:28.125Z,0
2017-01-16T01:33:39.521Z,0
2017-01-16T01:34:50.922Z,0
2017-01-16T01:36:02.756Z,0
2017-01-16T01:37:14.361Z,0
2017-01-16T01:38:26.014Z,0
2017-01-16T01:39:37.441Z,0
2017-01-16T01:40:48.846Z,0
2017-01-16T01:42:00.241Z,0
2017-01-16T01:43:11.641Z,0
2017-01-16T01:44:23.093Z,0
2017-01-16T01:45:34.499Z,0
2017-01-16T01:46:45.905Z,0
2017-01-16T01:47:57.299Z,0
2017-01-16T01:49:08.700Z,0
2017-01-16T01:50:20.155Z,0
2017-01-16T01:51:31.757Z,0
2017-01-16T01:52:43.160Z,0
2017-01-16T01:53:54.561Z,0
2017-01-16T01:55:05.989Z,0
2017-01-16T01:56:17.440Z,0
2017-01-16T01:57:28.835Z,0
2017-01-16T01:58:40.231Z,0
2017-01-16T01:59:51.638Z,0
2017-01-16T02:01:03.037Z,0
2017-01-16T02:02:14.485Z,0
2017-01-16T02:03:25.883Z,0
2017-01-16T02:04:37.484Z,0
2017-01-16T02:05:48.880Z,0
2017-01-16T02:07:00.479Z,0
2017-01-16T02:08:12.129Z,0
2017-01-16T02:09:23.731Z,0
2017-01-16T02:10:35.126Z,0
2017-01-16T02:11:46.514Z,0
2017-01-16T02:12:57.914Z,0
2017-01-16T02:14:09.369Z,0
2017-01-16T02:15:20.979Z,0
2017-01-16T02:16:32.377Z,0
2017-01-16T02:17:43.806Z,0
2017-01-16T02:18:55.207Z,0
2017-01-16T02:20:06.699Z,0
2017-01-16T02:21:18.091Z,0
2017-01-16T02:22:29.518Z,0
2017-01-16T02:23:41.115Z,0
2017-01-16T02:24:52.521Z,0
2017-01-16T02:26:03.976Z,0
2017-01-16T02:27:15.380Z,0
2017-01-16T02:28:26.780Z,0
2017-01-16T02:29:38.184Z,0
2017-01-16T02:30:49.574Z,0
2017-01-16T02:32:01.018Z,0
2017-01-16T02:33:12.420Z,0
2017-01-16T02:34:24.023Z,0
2017-01-16T02:35:35.432Z,0
2017-01-16T02:36:47.033Z,0
2017-01-16T02:37:58.480Z,0
2017-01-16T02:39:09.883Z,0
2017-01-16T02:40:21.291Z,0
2017-01-16T02:41:32.694Z,0
2017-01-16T02:42:44.102Z,0
2017-01-16T02:43:55.558Z,0
2017-01-16T02:45:06.959Z,0
2017-01-16T02:46:18.364Z,0
2017-01-16T02:47:29.762Z,0
2017-01-16T02:48:41.165Z,0
2017-01-16T02:49:52.610Z,0
2017-01-16T02:51:04.010Z,0
2017-01-16T02:52:16.275Z,0
2017-01-16T02:53:27.999Z,0
2017-01-16T02:54:39.393Z,0
2017-01-16T02:55:50.839Z,0
2017-01-16T02:57:02.237Z,0
2017-01-16T02:58:13.640Z,0
2017-01-16T02:59:25.035Z,0
2017-01-16T03:00:36.436Z,0
2017-01-16T03:01:48.286Z,0
2017-01-16T03:02:59.716Z,0
2017-01-16T03:04:11.120Z,0
2017-01-16T03:05:22.512Z,0
2017-01-16T03:06:33.917Z,0
2017-01-16T03:07:45.563Z,0
2017-01-16T03:08:56.959Z,0
2017-01-16T03:10:08.359Z,0
2017-01-16T03:11:19.954Z,0
2017-01-16T03:12:31.358Z,0
2017-01-16T03:13:42.815Z,0
2017-01-16T03:14:54.211Z,0
2017-01-16T03:16:05.614Z,0
2017-01-16T03:17:17.229Z,0
2017-01-16T03:18:28.633Z,0
2017-01-16T03:19:40.080Z,0
2017-01-16T03:20:51.478Z,0
2017-01-16T03:22:03.081Z,0
2017-01-16T03:23:14.482Z,0
2017-01-16T03:24:26.083Z,0
2017-01-16T03:25:37.727Z,0
2017-01-16T03:26:49.122Z,0
2017-01-16T03:28:00.725Z,0
2017-01-16T03:29:12.335Z,0
2017-01-16T03:30:23.743Z,0
2017-01-16T03:31:35.420Z,0
2017-01-16T03:32:46.825Z,0
2017-01-16T03:33:58.424Z,0
2017-01-16T03:35:09.820Z,0
2017-01-16T03:36:21.222Z,0
2017-01-16T03:37:32.665Z,0
2017-01-16T03:38:44.067Z,0
2017-01-16T03:39:55.477Z,0
2017-01-16T03:41:06.881Z,0
2017-01-16T03:42:18.286Z,0
2017-01-16T03:43:29.741Z,0
2017-01-16T03:44:41.143Z,0
2017-01-16T03:45:52.739Z,0
2017-01-16T03:47:04.138Z,0
2017-01-16T03:48:15.542Z,0
2017-01-16T03:49:27.200Z,0
2017-01-16T03:50:38.594Z,0
2017-01-16T03:51:50.019Z,0
2017-01-16T03:53:01.414Z,0
2017-01-16T03:54:12.811Z,0
2017-01-16T03:55:24.267Z,0
2017-01-16T03:56:35.666Z,0
2017-01-16T03:57:47.064Z,0
2017-01-16T03:58:58.505Z,0
2017-01-16T04:00:09.911Z,0
2017-01-16T04:01:21.561Z,0
2017-01-16T04:02:32.961Z,0
2017-01-16T04:03:44.357Z,0
2017-01-16T04:04:55.962Z,0
2017-01-16T04:06:07.568Z,0
2017-01-16T04:07:19.017Z,0
2017-01-16T04:08:30.422Z,0
2017-01-16T04:09:41.824Z,0
2017-01-16T04:10:53.230Z,0
2017-01-16T04:12:04.630Z,0
2017-01-16T04:13:16.087Z,0
2017-01-16T04:14:27.490Z,0
2017-01-16T04:15:38.893Z,0
2017-01-16T04:16:50.295Z,0
2017-01-16T04:18:01.705Z,0
2017-01-16T04:19:13.152Z,0
2017-01-16T04:20:24.560Z,0
2017-01-16T04:21:35.956Z,0
2017-01-16T04:22:47.559Z,0
2017-01-16T04:23:58.954Z,0
2017-01-16T04:25:10.405Z,0
2017-01-16T04:26:21.804Z,0
2017-01-16T04:27:33.208Z,0
2017-01-16T04:28:44.611Z,0
2017-01-16T04:29:56.209Z,0
2017-01-16T04:31:07.654Z,0
2017-01-16T04:32:19.058Z,0
2017-01-16T04:33:30.464Z,0
2017-01-16T04:34:41.860Z,0
2017-01-16T04:35:53.264Z,0
2017-01-16T04:37:04.711Z,0
2017-01-16T04:38:16.319Z,0
2017-01-16T04:39:27.724Z,0
2017-01-16T04:40:39.122Z,0
2017-01-16T04:41:50.522Z,0
2017-01-16T04:43:02.003Z,0
2017-01-16T04:44:13.429Z,0
2017-01-16T04:45:24.821Z,0
2017-01-16T04:46:36.217Z,0
2017-01-16T04:47:47.616Z,0
2017-01-16T04:48:59.296Z,0
2017-01-16T04:50:10.902Z,0
2017-01-16T04:51:22.304Z,0
2017-01-16T04:52:33.907Z,0
2017-01-16T04:53:45.306Z,0
2017-01-16T04:54:56.957Z,0
2017-01-16T04:56:08.369Z,0
2017-01-16T04:57:19.763Z,0
2017-01-16T04:58:31.161Z,0
2017-01-16T04:59:42.761Z,0
2017-01-16T05:00:54.407Z,0
2017-01-16T05:02:05.818Z,0
2017-01-16T05:03:17.217Z,0
2017-01-16T05:04:28.628Z,0
2017-01-16T05:05:40.055Z,0
2017-01-16T05:06:51.511Z,0
2017-01-16T05:08:02.908Z,0
2017-01-16T05:09:14.508Z,0
2017-01-16T05:10:25.907Z,0
2017-01-16T05:11:37.511Z,0
2017-01-16T05:12:48.972Z,0
2017-01-16T05:14:00.572Z,0
2017-01-16T05:15:11.968Z,0
2017-01-16T05:16:23.376Z,0
2017-01-16T05:17:34.799Z,0
2017-01-16T05:18:46.448Z,0
2017-01-16T05:19:57.846Z,0
2017-01-16T05:21:09.279Z,0
2017-01-16T05:22:20.682Z,0
2017-01-16T05:23:32.091Z,0
2017-01-16T05:24:43.538Z,0
2017-01-16T05:25:54.931Z,0
2017-01-16T05:27:06.334Z,0
2017-01-16T05:28:17.734Z,0
2017-01-16T05:29:29.132Z,0
2017-01-16T05:30:40.577Z,0
2017-01-16T05:31:51.973Z,0
2017-01-16T05:33:03.378Z,0
2017-01-16T05:34:14.789Z,0
2017-01-16T05:35:26.193Z,0
2017-01-16T05:36:37.640Z,0
2017-01-16T05:37:49.045Z,0
2017-01-16T05:39:00.441Z,0
2017-01-16T05:40:11.848Z,0
2017-01-16T05:41:23.241Z,0
2017-01-16T05:42:34.703Z,0
2017-01-16T05:43:46.104Z,0
2017-01-16T05:44:57.504Z,0
2017-01-16T05:46:08.910Z,0
2017-01-16T05:47:20.313Z,0
2017-01-16T05:48:31.797Z,0
2017-01-16T05:49:43.199Z,0
2017-01-16T05:50:54.594Z,0
2017-01-16T05:52:05.994Z,0
2017-01-16T05:53:17.596Z,0
2017-01-16T05:54:29.050Z,0
2017-01-16T05:55:40.450Z,0
2017-01-16T05:56:51.853Z,0
2017-01-16T05:58:03.285Z,0
2017-01-16T05:59:14.688Z,0
2017-01-16T06:00:26.141Z,0
2017-01-16T06:01:37.535Z,0
2017-01-16T06:02:48.937Z,0
2017-01-16T06:04:00.536Z,0
2017-01-16T06:05:11.934Z,0
2017-01-16T06:06:23.601Z,0
2017-01-16T06:07:35.007Z,0
2017-01-16T06:08:46.410Z,0
2017-01-16T06:09:57.809Z,0
2017-01-16T06:11:09.213Z,0
2017-01-16T06:12:20.669Z,0
2017-01-16T06:13:32.076Z,0
2017-01-16T06:14:43.487Z,0
2017-01-16T06:15:54.887Z,0
2017-01-16T06:17:06.286Z,0
2017-01-16T06:18:17.759Z,0
2017-01-16T06:19:29.359Z,0
2017-01-16T06:20:40.759Z,0
2017-01-16T06:21:52.152Z,0
2017-01-16T06:23:03.559Z,0
2017-01-16T06:24:15.203Z,0
2017-01-16T06:25:26.635Z,0
2017-01-16T06:26:38.036Z,0
2017-01-16T06:27:49.650Z,0
2017-01-16T06:29:01.055Z,0
2017-01-16T06:30:12.513Z,0
2017-01-16T06:31:23.919Z,0
2017-01-16T06:32:35.319Z,0
2017-01-16T06:33:46.718Z,0
2017-01-16T06:34:58.123Z,0
2017-01-16T06:36:09.565Z,0
2017-01-16T06:37:20.970Z,0
2017-01-16T06:38:32.375Z,0
2017-01-16T06:39:43.775Z,0
2017-01-16T06:40:55.208Z,0
2017-01-16T06:42:06.660Z,0
2017-01-16T06:43:18.255Z,0
2017-01-16T06:44:29.660Z,0
2017-01-16T06:45:41.058Z,0
2017-01-16T06:46:52.480Z,0
2017-01-16T06:48:03.939Z,0
2017-01-16T06:49:15.341Z,0
2017-01-16T06:50:26.738Z,0
2017-01-16T06:51:38.145Z,0
2017-01-16T06:52:49.752Z,0
2017-01-16T06:54:01.206Z,0
2017-01-16T06:55:12.617Z,0
2017-01-16T06:56:24.215Z,0
2017-01-16T06:57:35.812Z,0
2017-01-16T06:58:47.213Z,0
2017-01-16T06:59:58.666Z,0
2017-01-16T07:01:10.070Z,0
2017-01-16T07:02:21.466Z,0
2017-01-16T07:03:32.866Z,0
2017-01-16T07:04:44.262Z,0
2017-01-16T07:05:55.719Z,0
2017-01-16T07:07:07.118Z,0
2017-01-16T07:08:18.511Z,0
2017-01-16T07:09:29.926Z,0
2017-01-16T07:10:41.326Z,0
2017-01-16T07:11:53.172Z,0
2017-01-16T07:13:04.576Z,0
2017-01-16T07:14:16.002Z,0
2017-01-16T07:15:27.404Z,0
2017-01-16T07:16:38.805Z,0
2017-01-16T07:17:50.260Z,0
2017-01-16T07:19:01.655Z,0
2017-01-16T07:20:13.259Z,0
2017-01-16T07:21:24.865Z,0
2017-01-16T07:22:36.470Z,0
2017-01-16T07:23:47.930Z,0
2017-01-16T07:24:59.326Z,0
2017-01-16T07:26:10.723Z,0
2017-01-16T07:27:22.322Z,0
2017-01-16T07:28:33.928Z,0
2017-01-16T07:29:45.385Z,0
2017-01-16T07:30:56.783Z,0
2017-01-16T07:32:08.178Z,0
2017-01-16T07:33:19.576Z,0
2017-01-16T07:34:30.981Z,0
2017-01-16T07:35:42.431Z,5
2017-01-16T07:36:53.835Z,5
2017-01-16T07:38:05.226Z,5
2017-01-16T07:39:16.634Z,5
2017-01-16T07:40:28.038Z,5
2017-01-16T07:41:39.698Z,5
2017-01-16T07:42:51.104Z,5
2017-01-16T07:44:02.502Z,5
2017-01-16T07:45:13.913Z,5
2017-01-16T07:46:25.320Z,5
2017-01-16T07:47:36.770Z,5
2017-01-16T07:48:48.371Z,10
2017-01-16T07:49:59.772Z,10
2017-01-16T07:51:11.205Z,10
2017-01-16T07:52:22.602Z,10
2017-01-16T07:53:34.197Z,15
2017-01-16T07:54:45.609Z,15
2017-01-16T07:55:57.020Z,15
2017-01-16T07:57:08.421Z,15
2017-01-16T07:58:19.825Z,20
2017-01-16T07:59:31.271Z,20
2017-01-16T08:00:42.675Z,20
2017-01-16T08:01:54.281Z,20
2017-01-16T08:03:05.682Z,20
2017-01-16T08:04:17.074Z,25
2017-01-16T08:05:28.528Z,25
2017-01-16T08:06:39.919Z,30
2017-01-16T08:07:51.523Z,30
2017-01-16T08:09:02.916Z,30
2017-01-16T08:10:14.527Z,30
2017-01-16T08:11:25.984Z,35
2017-01-16T08:12:37.383Z,35
2017-01-16T08:13:48.781Z,35
2017-01-16T08:15:00.186Z,35
2017-01-16T08:16:11.592Z,35
2017-01-16T08:17:23.041Z,35
2017-01-16T08:18:34.446Z,40
2017-01-16T08:19:45.852Z,35
2017-01-16T08:20:57.258Z,35
2017-01-16T08:22:08.667Z,40
2017-01-16T08:23:20.121Z,45
2017-01-16T08:24:31.522Z,50
2017-01-16T08:25:42.921Z,70
2017-01-16T08:26:54.322Z,75
2017-01-16T08:28:05.932Z,85
2017-01-16T08:29:17.438Z,95
2017-01-16T08:30:28.860Z,110
2017-01-16T08:31:40.260Z,110
2017-01-16T08:32:51.663Z,145
2017-01-16T08:34:03.064Z,135
2017-01-16T08:35:14.508Z,130
2017-01-16T08:36:25.902Z,130
2017-01-16T08:37:37.302Z,130
2017-01-16T08:38:48.896Z,115
2017-01-16T08:40:00.298Z,110
2017-01-16T08:41:11.785Z,115
2017-01-16T08:42:23.188Z,115
2017-01-16T08:43:34.588Z,110
2017-01-16T08:44:46.193Z,100
2017-01-16T08:45:57.617Z,95
2017-01-16T08:47:09.063Z,95
2017-01-16T08:48:20.454Z,95
2017-01-16T08:49:31.860Z,95
2017-01-16T08:50:43.266Z,95
2017-01-16T08:51:54.668Z,95
2017-01-16T08:53:06.130Z,95
2017-01-16T08:54:17.730Z,100
2017-01-16T08:55:29.128Z,100
2017-01-16T08:56:40.533Z,105
2017-01-16T08:57:51.958Z,105
2017-01-16T08:59:03.401Z,105
2017-01-16T09:00:14.802Z,105
2017-01-16T09:01:26.427Z,110
2017-01-16T09:02:37.828Z,125
2017-01-16T09:03:49.230Z,140
2017-01-16T09:05:00.887Z,155
2017-01-16T09:06:12.289Z,165
2017-01-16T09:07:23.889Z,155
2017-01-16T09:08:35.497Z,160
2017-01-16T09:09:46.933Z,175
2017-01-16T09:10:58.580Z,200
2017-01-16T09:12:09.985Z,225
2017-01-16T09:13:21.384Z,220
2017-01-16T09:14:32.781Z,240
2017-01-16T09:15:44.204Z,255
2017-01-16T09:16:55.653Z,280
2017-01-16T09:18:07.059Z,320
2017-01-16T09:19:18.462Z,440
2017-01-16T09:20:29.859Z,720
2017-01-16T09:21:41.269Z,990
2017-01-16T09:22:52.730Z,920
2017-01-16T09:24:04.142Z,800
2017-01-16T09:25:15.547Z,795
2017-01-16T09:26:26.974Z,495
2017-01-16T09:27:38.378Z,490
2017-01-16T09:28:49.824Z,1020
2017-01-16T09:30:01.219Z,920
2017-01-16T09:31:12.633Z,490
2017-01-16T09:32:24.042Z,520
2017-01-16T09:33:35.447Z,575
2017-01-16T09:34:46.893Z,550
2017-01-16T09:35:58.302Z,945
2017-01-16T09:37:09.745Z,920
2017-01-16T09:38:21.157Z,775
2017-01-16T09:39:32.762Z,655
2017-01-16T09:40:44.219Z,710
2017-01-16T09:41:55.620Z,1190
2017-01-16T09:43:07.054Z,1365
2017-01-16T09:44:18.462Z,1420
2017-01-16T09:45:29.875Z,1305
2017-01-16T09:46:41.340Z,1240
2017-01-16T09:47:52.773Z,915
2017-01-16T09:49:04.188Z,1120
2017-01-16T09:50:15.591Z,750
2017-01-16T09:51:26.994Z,505
2017-01-16T09:52:38.451Z,600
2017-01-16T09:53:49.872Z,1340
2017-01-16T09:55:01.283Z,565
2017-01-16T09:56:12.713Z,1020
2017-01-16T09:57:24.123Z,1370
2017-01-16T09:58:35.784Z,1460
2017-01-16T09:59:47.392Z,1320
2017-01-16T10:00:58.806Z,1535
2017-01-16T10:02:10.205Z,1565
2017-01-16T10:03:21.617Z,1690
2017-01-16T10:04:33.072Z,1690
2017-01-16T10:05:44.486Z,845
2017-01-16T10:06:55.907Z,1305
2017-01-16T10:08:07.316Z,650
2017-01-16T10:09:18.934Z,590
2017-01-16T10:10:30.398Z,725
2017-01-16T10:11:42.012Z,450
2017-01-16T10:12:53.621Z,930
2017-01-16T10:14:05.061Z,555
2017-01-16T10:15:16.474Z,1400
2017-01-16T10:16:27.930Z,1520
2017-01-16T10:17:39.339Z,945
2017-01-16T10:18:50.953Z,905
2017-01-16T10:20:02.367Z,1225
2017-01-16T10:21:13.777Z,850
2017-01-16T10:22:25.432Z,1410
2017-01-16T10:23:37.040Z,630
2017-01-16T10:24:48.449Z,1685
2017-01-16T10:25:59.869Z,1140
2017-01-16T10:27:11.278Z,1880
2017-01-16T10:28:22.743Z,1800
2017-01-16T10:29:34.153Z,1485
2017-01-16T10:30:45.559Z,1570
2017-01-16T10:31:56.971Z,1735
2017-01-16T10:33:08.378Z,1680
2017-01-16T10:34:20.244Z,1680
2017-01-16T10:35:31.651Z,1735
2017-01-16T10:36:43.264Z,1790
2017-01-16T10:37:54.681Z,1750
2017-01-16T10:39:06.090Z,1740
2017-01-16T10:40:17.551Z,1795
2017-01-16T10:41:28.977Z,1770
2017-01-16T10:42:40.402Z,1740
2017-01-16T10:43:51.814Z,1720
2017-01-16T10:45:03.242Z,1735
2017-01-16T10:46:14.703Z,1790
2017-01-16T10:47:26.320Z,1820
2017-01-16T10:48:37.740Z,1840
2017-01-16T10:49:49.365Z,1955
2017-01-16T10:51:00.811Z,1870
2017-01-16T10:52:12.280Z,1830
2017-01-16T10:53:23.696Z,1865
2017-01-16T10:54:35.127Z,1865
2017-01-16T10:55:46.543Z,1825
2017-01-16T10:56:58.013Z,1760
2017-01-16T10:58:09.429Z,1720
2017-01-16T10:59:20.849Z,1735
2017-01-16T11:00:32.271Z,1700
2017-01-16T11:01:43.705Z,1565
2017-01-16T11:02:55.171Z,885
2017-01-16T11:04:06.593Z,1110
2017-01-16T11:05:18.005Z,1400
2017-01-16T11:06:29.431Z,1410
2017-01-16T11:07:40.843Z,1575
2017-01-16T11:08:52.312Z,1505
2017-01-16T11:10:03.735Z,1555
2017-01-16T11:11:15.355Z,1445
2017-01-16T11:12:26.782Z,890
2017-01-16T11:13:38.404Z,1015
2017-01-16T11:14:50.075Z,930
2017-01-16T11:16:01.493Z,1145
2017-01-16T11:17:12.905Z,1395
2017-01-16T11:18:24.320Z,1535
2017-01-16T11:19:35.744Z,1200
2017-01-16T11:20:47.221Z,805
2017-01-16T11:21:58.640Z,500
2017-01-16T11:23:10.057Z,460
2017-01-16T11:24:21.704Z,465
2017-01-16T11:25:33.114Z,410
2017-01-16T11:26:44.578Z,390
2017-01-16T11:27:56.198Z,385
2017-01-16T11:29:07.608Z,375
2017-01-16T11:30:19.019Z,355
2017-01-16T11:31:30.432Z,350
2017-01-16T11:32:41.890Z,345
2017-01-16T11:33:53.311Z,340
2017-01-16T11:35:04.766Z,330
2017-01-16T11:36:16.193Z,330
2017-01-16T11:37:27.804Z,315
2017-01-16T11:38:39.466Z,315
2017-01-16T11:39:50.882Z,350
2017-01-16T11:41:02.287Z,520
2017-01-16T11:42:13.694Z,370
2017-01-16T11:43:25.104Z,360
2017-01-16T11:44:36.559Z,340
2017-01-16T11:45:47.961Z,340
2017-01-16T11:46:59.371Z,340
2017-01-16T11:48:10.795Z,330
2017-01-16T11:49:22.199Z,375
2017-01-16T11:50:33.914Z,365
2017-01-16T11:51:45.318Z,290
2017-01-16T11:52:56.925Z,280
2017-01-16T11:54:08.330Z,280
2017-01-16T11:55:19.739Z,275
2017-01-16T11:56:31.206Z,280
2017-01-16T11:57:42.601Z,280
2017-01-16T11:58:54.006Z,290
2017-01-16T12:00:05.408Z,295
2017-01-16T12:01:16.806Z,310
2017-01-16T12:02:28.259Z,850
2017-01-16T12:03:39.660Z,765
2017-01-16T12:04:51.066Z,985
2017-01-16T12:06:02.471Z,1065
2017-01-16T12:07:13.874Z,1140
2017-01-16T12:08:25.330Z,1150
2017-01-16T12:09:36.775Z,1125
2017-01-16T12:10:48.182Z,1085
2017-01-16T12:11:59.595Z,1050
2017-01-16T12:13:11.001Z,1025
2017-01-16T12:14:22.662Z,1100
2017-01-16T12:15:34.068Z,1000
2017-01-16T12:16:45.482Z,610
2017-01-16T12:17:56.888Z,485
2017-01-16T12:19:08.500Z,485
2017-01-16T12:20:20.158Z,340
2017-01-16T12:21:31.566Z,665
2017-01-16T12:22:42.969Z,765
2017-01-16T12:23:54.402Z,530
2017-01-16T12:25:05.812Z,715
2017-01-16T12:26:17.269Z,725
2017-01-16T12:27:28.675Z,670
2017-01-16T12:28:40.095Z,810
2017-01-16T12:29:51.512Z,730
2017-01-16T12:31:02.926Z,585
2017-01-16T12:32:14.382Z,665
2017-01-16T12:33:25.795Z,640
2017-01-16T12:34:37.204Z,565
2017-01-16T12:35:48.811Z,560
2017-01-16T12:37:00.227Z,400
2017-01-16T12:38:11.690Z,440
2017-01-16T12:39:23.300Z,555
2017-01-16T12:40:34.706Z,675
2017-01-16T12:41:46.115Z,490
2017-01-16T12:42:57.522Z,410
2017-01-16T12:44:08.978Z,670
2017-01-16T12:45:20.382Z,895
2017-01-16T12:46:31.788Z,865
2017-01-16T12:47:43.395Z,965
2017-01-16T12:48:55.004Z,865
2017-01-16T12:50:06.455Z,870
2017-01-16T12:51:17.865Z,870
2017-01-16T12:52:29.270Z,900
2017-01-16T12:53:40.678Z,840
2017-01-16T12:54:52.079Z,700
2017-01-16T12:56:03.533Z,700
2017-01-16T12:57:15.141Z,765
2017-01-16T12:58:26.552Z,700
2017-01-16T12:59:37.988Z,685
2017-01-16T13:00:49.398Z,615
2017-01-16T13:02:00.853Z,650
2017-01-16T13:03:12.269Z,610
2017-01-16T13:04:23.682Z,560
2017-01-16T13:05:35.119Z,630
2017-01-16T13:06:46.522Z,545
2017-01-16T13:07:57.973Z,605
2017-01-16T13:09:09.388Z,650
2017-01-16T13:10:20.798Z,615
2017-01-16T13:11:32.605Z,595
2017-01-16T13:12:44.010Z,525
2017-01-16T13:13:55.467Z,470
2017-01-16T13:15:06.877Z,405
2017-01-16T13:16:18.281Z,475
2017-01-16T13:17:29.685Z,510
2017-01-16T13:18:41.091Z,405
2017-01-16T13:19:52.548Z,335
2017-01-16T13:21:03.959Z,310
2017-01-16T13:22:15.371Z,250
2017-01-16T13:23:26.783Z,235
2017-01-16T13:24:38.201Z,310
2017-01-16T13:25:49.655Z,390
2017-01-16T13:27:01.065Z,370
2017-01-16T13:28:12.470Z,325
2017-01-16T13:29:23.876Z,300
2017-01-16T13:30:35.278Z,285
2017-01-16T13:31:46.732Z,245
2017-01-16T13:32:58.154Z,205
2017-01-16T13:34:09.562Z,205
2017-01-16T13:35:20.976Z,225
2017-01-16T13:36:32.373Z,320
2017-01-16T13:37:43.817Z,300
2017-01-16T13:38:55.219Z,335
2017-01-16T13:40:06.619Z,295
2017-01-16T13:41:18.021Z,310
2017-01-16T13:42:29.428Z,315
2017-01-16T13:43:41.078Z,215
2017-01-16T13:44:52.676Z,270
2017-01-16T13:46:04.082Z,225
2017-01-16T13:47:15.492Z,275
2017-01-16T13:48:27.097Z,240
2017-01-16T13:49:38.551Z,335
2017-01-16T13:50:49.957Z,335
2017-01-16T13:52:01.556Z,295
2017-01-16T13:53:12.962Z,250
2017-01-16T13:54:24.368Z,220
2017-01-16T13:55:36.015Z,185
2017-01-16T13:56:47.418Z,230
2017-01-16T13:57:58.813Z,225
2017-01-16T13:59:10.220Z,235
2017-01-16T14:00:21.627Z,195
2017-01-16T14:01:33.090Z,175
2017-01-16T14:02:44.491Z,155
2017-01-16T14:03:55.894Z,155
2017-01-16T14:05:07.294Z,155
2017-01-16T14:06:18.714Z,155
2017-01-16T14:07:30.177Z,160
2017-01-16T14:08:41.584Z,160
2017-01-16T14:09:52.989Z,165
2017-01-16T14:11:04.397Z,185
2017-01-16T14:12:15.792Z,190
2017-01-16T14:13:27.254Z,185
2017-01-16T14:14:38.660Z,175
2017-01-16T14:15:50.070Z,175
2017-01-16T14:17:01.470Z,160
2017-01-16T14:18:12.883Z,155
2017-01-16T14:19:24.343Z,155
2017-01-16T14:20:35.944Z,160
2017-01-16T14:21:47.341Z,160
2017-01-16T14:22:58.752Z,160
2017-01-16T14:24:10.166Z,160
2017-01-16T14:25:21.820Z,155
2017-01-16T14:26:33.221Z,150
2017-01-16T14:27:44.628Z,140
2017-01-16T14:28:56.026Z,125
2017-01-16T14:30:07.437Z,120
2017-01-16T14:31:18.892Z,115
2017-01-16T14:32:30.296Z,115
2017-01-16T14:33:41.907Z,110
2017-01-16T14:34:53.516Z,110
2017-01-16T14:36:04.919Z,105
2017-01-16T14:37:16.370Z,100
2017-01-16T14:38:27.968Z,100
2017-01-16T14:39:39.372Z,95
2017-01-16T14:40:50.976Z,95
2017-01-16T14:42:02.583Z,95
2017-01-16T14:43:14.043Z,90
2017-01-16T14:44:25.648Z,90
2017-01-16T14:45:37.063Z,85
2017-01-16T14:46:48.467Z,80
2017-01-16T14:47:59.870Z,80
2017-01-16T14:49:11.318Z,80
2017-01-16T14:50:22.726Z,80
2017-01-16T14:51:34.126Z,80
2017-01-16T14:52:45.530Z,75
2017-01-16T14:53:56.939Z,75
2017-01-16T14:55:08.392Z,80
2017-01-16T14:56:19.794Z,75
2017-01-16T14:57:31.189Z,75
2017-01-16T14:58:42.589Z,70
2017-01-16T14:59:53.985Z,70
2017-01-16T15:01:05.634Z,65
2017-01-16T15:02:17.039Z,60
2017-01-16T15:03:28.435Z,55
2017-01-16T15:04:39.841Z,50
2017-01-16T15:05:51.255Z,50
2017-01-16T15:07:02.712Z,50
2017-01-16T15:08:14.121Z,45
2017-01-16T15:09:25.516Z,35
2017-01-16T15:10:36.928Z,35
2017-01-16T15:11:48.330Z,30
2017-01-16T15:12:59.782Z,25
2017-01-16T15:14:11.387Z,25
2017-01-16T15:15:22.790Z,25
2017-01-16T15:16:34.202Z,20
2017-01-16T15:17:45.599Z,20
2017-01-16T15:18:57.051Z,20
2017-01-16T15:20:08.447Z,20
2017-01-16T15:21:19.851Z,20
2017-01-16T15:22:31.251Z,20
2017-01-16T15:23:42.650Z,20
2017-01-16T15:24:54.506Z,20
2017-01-16T15:26:05.910Z,20
2017-01-16T15:27:17.322Z,20
2017-01-16T15:28:28.717Z,20
2017-01-16T15:29:40.125Z,20
2017-01-16T15:30:51.576Z,20
2017-01-16T15:32:02.986Z,20
2017-01-16T15:33:14.586Z,20
2017-01-16T15:34:25.979Z,15
2017-01-16T15:35:37.591Z,15
2017-01-16T15:36:49.046Z,15
2017-01-16T15:38:00.455Z,15
2017-01-16T15:39:12.060Z,15
2017-01-16T15:40:23.455Z,10
2017-01-16T15:41:34.846Z,10
2017-01-16T15:42:46.498Z,10
2017-01-16T15:43:57.895Z,10
2017-01-16T15:45:09.324Z,10
2017-01-16T15:46:20.719Z,10
2017-01-16T15:47:32.132Z,10
2017-01-16T15:48:43.781Z,10
2017-01-16T15:49:55.183Z,5
2017-01-16T15:51:06.574Z,5
2017-01-16T15:52:17.972Z,5
2017-01-16T15:53:29.373Z,5
2017-01-16T15:54:41.028Z,5
2017-01-16T15:55:52.435Z,5
2017-01-16T15:57:04.034Z,5
2017-01-16T15:58:15.433Z,5
2017-01-16T15:59:26.829Z,5
2017-01-16T16:00:38.250Z,0
2017-01-16T16:01:49.866Z,0
2017-01-16T16:03:01.259Z,0
2017-01-16T16:04:12.865Z,0
2017-01-16T16:05:24.312Z,0
2017-01-16T16:06:35.716Z,0
2017-01-16T16:07:47.121Z,0
2017-01-16T16:08:58.524Z,0
2017-01-16T16:10:09.932Z,0
2017-01-16T16:11:21.386Z,0
2017-01-16T16:12:32.792Z,0
2017-01-16T16:13:44.191Z,0
2017-01-16T16:14:55.590Z,0
2017-01-16T16:16:07.195Z,0
2017-01-16T16:17:18.636Z,0
2017-01-16T16:18:30.059Z,0
2017-01-16T16:19:41.449Z,0
2017-01-16T16:20:52.853Z,0
2017-01-16T16:22:04.653Z,0
2017-01-16T16:23:16.101Z,0
2017-01-16T16:24:27.503Z,0
2017-01-16T16:25:38.893Z,0
2017-01-16T16:26:50.294Z,0
2017-01-16T16:28:01.700Z,0
2017-01-16T16:29:13.147Z,0
2017-01-16T16:30:24.537Z,0
2017-01-16T16:31:35.928Z,0
2017-01-16T16:32:47.327Z,0
2017-01-16T16:33:58.731Z,0
2017-01-16T16:35:10.175Z,0
2017-01-16T16:36:21.776Z,0
2017-01-16T16:37:33.175Z,0
2017-01-16T16:38:44.775Z,0
2017-01-16T16:39:56.375Z,0
2017-01-16T16:41:07.839Z,0
2017-01-16T16:42:19.242Z,0
2017-01-16T16:43:30.659Z,0
2017-01-16T16:44:42.061Z,0
2017-01-16T16:45:53.466Z,0
2017-01-16T16:47:04.920Z,0
2017-01-16T16:48:16.327Z,0
2017-01-16T16:49:27.727Z,0
2017-01-16T16:50:39.134Z,0
2017-01-16T16:51:50.539Z,0
2017-01-16T16:53:02.142Z,0
2017-01-16T16:54:13.544Z,0
2017-01-16T16:55:25.137Z,0
2017-01-16T16:56:36.533Z,0
2017-01-16T16:57:47.999Z,0
2017-01-16T16:58:59.394Z,0
2017-01-16T17:00:10.799Z,0
2017-01-16T17:01:22.193Z,0
2017-01-16T17:02:33.591Z,0